sensor_id;sensor_type;location;lat;lon;timestamp;pressure;altitude;pressure_sealevel;temperature;humidity
64352;BME280;50680;52.626;-8.668;2024-03-23T00:55:34;102007.13;;;5.05;100.00
64352;BME280;50680;52.626;-8.668;2024-03-23T00:58:00;102024.44;;;5.06;100.00
64352;BME280;50680;52.626;-8.668;2024-03-23T01:00:26;102007.13;;;5.05;100.00
64352;BME280;50680;52.626;-8.668;2024-03-23T01:02:51;102012.28;;;5.08;100.00
64352;BME280;50680;52.626;-8.668;2024-03-23T01:05:17;102019.09;;;5.15;100.00
64352;BME280;50680;52.626;-8.668;2024-03-23T01:07:43;102004.31;;;5.17;100.00
64352;BME280;50680;52.626;-8.668;2024-03-23T01:10:09;101999.13;;;5.17;100.00
64352;BME280;50680;52.626;-8.668;2024-03-23T01:12:34;102002.66;;;5.13;100.00
64352;BME280;50680;52.626;-8.668;2024-03-23T01:15:00;101998.31;;;5.14;100.00
64352;BME280;50680;52.626;-8.668;2024-03-23T01:17:26;101992.34;;;5.08;100.00
64352;BME280;50680;52.626;-8.668;2024-03-23T01:19:51;101992.31;;;5.10;100.00
64352;BME280;50680;52.626;-8.668;2024-03-23T01:22:18;101986.09;;;5.20;100.00
64352;BME280;50680;52.626;-8.668;2024-03-23T01:24:44;101977.13;;;5.40;100.00
64352;BME280;50680;52.626;-8.668;2024-03-23T01:27:09;101972.59;;;5.48;100.00
64352;BME280;50680;52.626;-8.668;2024-03-23T01:29:35;101984.56;;;5.58;100.00
64352;BME280;50680;52.626;-8.668;2024-03-23T01:32:01;101961.09;;;5.61;100.00
64352;BME280;50680;52.626;-8.668;2024-03-23T01:34:27;101954.97;;;5.64;100.00
64352;BME280;50680;52.626;-8.668;2024-03-23T01:36:53;101963.75;;;5.58;100.00
64352;BME280;50680;52.626;-8.668;2024-03-23T01:39:19;101965.63;;;5.50;100.00
64352;BME280;50680;52.626;-8.668;2024-03-23T01:41:45;101956.09;;;5.52;100.00
64352;BME280;50680;52.626;-8.668;2024-03-23T01:44:10;101947.28;;;5.59;100.00
64352;BME280;50680;52.626;-8.668;2024-03-23T01:46:39;101942.66;;;5.74;100.00
64352;BME280;50680;52.626;-8.668;2024-03-23T01:49:07;101924.44;;;5.74;100.00
64352;BME280;50680;52.626;-8.668;2024-03-23T01:51:34;101923.41;;;5.82;100.00
64352;BME280;50680;52.626;-8.668;2024-03-23T01:54:04;101924.03;;;5.95;100.00
64352;BME280;50680;52.626;-8.668;2024-03-23T01:56:33;101907.53;;;5.96;100.00
64352;BME280;50680;52.626;-8.668;2024-03-23T01:59:04;101916.91;;;6.03;100.00
64352;BME280;50680;52.626;-8.668;2024-03-23T02:01:31;101918.59;;;6.08;100.00
64352;BME280;50680;52.626;-8.668;2024-03-23T02:03:58;101921.03;;;6.14;100.00
64352;BME280;50680;52.626;-8.668;2024-03-23T02:06:24;101937.47;;;6.16;100.00
64352;BME280;50680;52.626;-8.668;2024-03-23T02:08:51;101923.53;;;6.20;100.00
64352;BME280;50680;52.626;-8.668;2024-03-23T02:11:17;101926.91;;;6.25;100.00
64352;BME280;50680;52.626;-8.668;2024-03-23T02:13:43;101954.50;;;6.32;100.00
64352;BME280;50680;52.626;-8.668;2024-03-23T02:16:09;101930.09;;;6.36;100.00
64352;BME280;50680;52.626;-8.668;2024-03-23T02:18:34;101916.16;;;6.39;100.00
64352;BME280;50680;52.626;-8.668;2024-03-23T02:21:00;101922.41;;;6.32;100.00
64352;BME280;50680;52.626;-8.668;2024-03-23T02:23:26;101940.78;;;6.24;100.00
64352;BME280;50680;52.626;-8.668;2024-03-23T02:25:52;101911.59;;;6.10;100.00
64352;BME280;50680;52.626;-8.668;2024-03-23T02:28:21;101919.47;;;6.07;100.00
64352;BME280;50680;52.626;-8.668;2024-03-23T02:30:51;101925.38;;;6.15;100.00
64352;BME280;50680;52.626;-8.668;2024-03-23T02:33:17;101920.31;;;6.07;100.00
64352;BME280;50680;52.626;-8.668;2024-03-23T02:35:46;101906.25;;;6.16;100.00
64352;BME280;50680;52.626;-8.668;2024-03-23T02:38:12;101901.09;;;6.14;100.00
64352;BME280;50680;52.626;-8.668;2024-03-23T02:40:38;101900.22;;;6.14;100.00
64352;BME280;50680;52.626;-8.668;2024-03-23T02:43:04;101880.28;;;6.13;100.00
64352;BME280;50680;52.626;-8.668;2024-03-23T02:45:30;101882.19;;;6.05;100.00
64352;BME280;50680;52.626;-8.668;2024-03-23T02:47:57;101926.41;;;6.08;100.00
64352;BME280;50680;52.626;-8.668;2024-03-23T02:50:22;101936.88;;;6.05;100.00
64352;BME280;50680;52.626;-8.668;2024-03-23T02:52:48;101921.31;;;6.01;100.00
64352;BME280;50680;52.626;-8.668;2024-03-23T02:55:14;101885.06;;;5.91;100.00
64352;BME280;50680;52.626;-8.668;2024-03-23T02:57:41;101874.66;;;5.91;100.00
64352;BME280;50680;52.626;-8.668;2024-03-23T03:00:07;101875.56;;;5.88;100.00
64352;BME280;50680;52.626;-8.668;2024-03-23T03:02:33;101880.00;;;5.83;100.00
64352;BME280;50680;52.626;-8.668;2024-03-23T03:04:59;101879.97;;;5.84;100.00
64352;BME280;50680;52.626;-8.668;2024-03-23T03:07:25;101862.69;;;5.82;100.00
64352;BME280;50680;52.626;-8.668;2024-03-23T03:09:51;101856.53;;;5.84;100.00
64352;BME280;50680;52.626;-8.668;2024-03-23T03:12:17;101854.84;;;5.83;100.00
64352;BME280;50680;52.626;-8.668;2024-03-23T03:14:43;101843.66;;;5.80;100.00
64352;BME280;50680;52.626;-8.668;2024-03-23T03:17:08;101847.06;;;5.82;100.00
64352;BME280;50680;52.626;-8.668;2024-03-23T03:19:34;101853.31;;;5.75;100.00
64352;BME280;50680;52.626;-8.668;2024-03-23T03:22:00;101851.63;;;5.71;100.00
64352;BME280;50680;52.626;-8.668;2024-03-23T03:24:26;101841.47;;;5.58;100.00
64352;BME280;50680;52.626;-8.668;2024-03-23T03:26:51;101834.75;;;5.48;100.00
64352;BME280;50680;52.626;-8.668;2024-03-23T03:29:17;101835.81;;;5.38;100.00
64352;BME280;50680;52.626;-8.668;2024-03-23T03:31:43;101819.53;;;5.30;100.00
64352;BME280;50680;52.626;-8.668;2024-03-23T03:34:09;101825.69;;;5.24;100.00
64352;BME280;50680;52.626;-8.668;2024-03-23T03:36:35;101823.16;;;5.21;100.00
64352;BME280;50680;52.626;-8.668;2024-03-23T03:39:01;101817.97;;;5.21;100.00
64352;BME280;50680;52.626;-8.668;2024-03-23T03:41:29;101814.63;;;5.14;100.00
64352;BME280;50680;52.626;-8.668;2024-03-23T03:43:54;101807.66;;;5.15;100.00
64352;BME280;50680;52.626;-8.668;2024-03-23T03:46:21;101802.47;;;5.15;100.00
64352;BME280;50680;52.626;-8.668;2024-03-23T03:48:46;101805.88;;;5.17;100.00
64352;BME280;50680;52.626;-8.668;2024-03-23T03:51:14;101793.69;;;5.20;100.00
64352;BME280;50680;52.626;-8.668;2024-03-23T03:53:40;101801.44;;;5.23;100.00
64352;BME280;50680;52.626;-8.668;2024-03-23T03:56:05;101805.66;;;5.27;100.00
64352;BME280;50680;52.626;-8.668;2024-03-23T03:58:32;101791.84;;;5.25;100.00
64352;BME280;50680;52.626;-8.668;2024-03-23T04:00:58;101801.06;;;5.42;100.00
64352;BME280;50680;52.626;-8.668;2024-03-23T04:03:23;101813.94;;;5.48;100.00
64352;BME280;50680;52.626;-8.668;2024-03-23T04:05:51;101808.31;;;5.70;100.00
64352;BME280;50680;52.626;-8.668;2024-03-23T04:08:17;101802.16;;;5.72;100.00
64352;BME280;50680;52.626;-8.668;2024-03-23T04:10:43;101801.25;;;5.75;100.00
64352;BME280;50680;52.626;-8.668;2024-03-23T04:13:08;101788.50;;;5.62;100.00
64352;BME280;50680;52.626;-8.668;2024-03-23T04:15:34;101773.69;;;5.66;100.00
64352;BME280;50680;52.626;-8.668;2024-03-23T04:18:00;101776.03;;;5.77;100.00
64352;BME280;50680;52.626;-8.668;2024-03-23T04:20:25;101767.16;;;5.87;100.00
64352;BME280;50680;52.626;-8.668;2024-03-23T04:22:51;101776.81;;;5.82;100.00
64352;BME280;50680;52.626;-8.668;2024-03-23T04:25:17;101774.91;;;5.89;100.00
64352;BME280;50680;52.626;-8.668;2024-03-23T04:27:45;101773.91;;;5.94;100.00
64352;BME280;50680;52.626;-8.668;2024-03-23T04:30:11;101759.09;;;5.99;100.00
64352;BME280;50680;52.626;-8.668;2024-03-23T04:32:37;101753.81;;;6.02;100.00
64352;BME280;50680;52.626;-8.668;2024-03-23T04:35:04;101750.97;;;6.12;100.00
64352;BME280;50680;52.626;-8.668;2024-03-23T04:37:37;101749.22;;;6.12;100.00
64352;BME280;50680;52.626;-8.668;2024-03-23T04:40:03;101756.06;;;6.18;100.00
64352;BME280;50680;52.626;-8.668;2024-03-23T04:42:30;101757.78;;;6.17;100.00
64352;BME280;50680;52.626;-8.668;2024-03-23T04:44:56;101772.56;;;6.17;100.00
64352;BME280;50680;52.626;-8.668;2024-03-23T04:47:22;101763.94;;;6.15;100.00
64352;BME280;50680;52.626;-8.668;2024-03-23T04:49:48;101759.56;;;6.15;100.00
64352;BME280;50680;52.626;-8.668;2024-03-23T04:52:15;101777.88;;;6.12;100.00
64352;BME280;50680;52.626;-8.668;2024-03-23T04:54:41;101757.22;;;6.05;100.00
64352;BME280;50680;52.626;-8.668;2024-03-23T04:57:07;101757.34;;;5.98;100.00
64352;BME280;50680;52.626;-8.668;2024-03-23T04:59:33;101757.50;;;5.92;100.00
64352;BME280;50680;52.626;-8.668;2024-03-23T05:01:59;101759.28;;;5.90;100.00
64352;BME280;50680;52.626;-8.668;2024-03-23T05:04:25;101754.97;;;5.88;100.00
64352;BME280;50680;52.626;-8.668;2024-03-23T05:06:51;101755.81;;;5.88;100.00
64352;BME280;50680;52.626;-8.668;2024-03-23T05:09:17;101727.19;;;5.88;100.00
64352;BME280;50680;52.626;-8.668;2024-03-23T05:11:43;101719.38;;;5.88;100.00
64352;BME280;50680;52.626;-8.668;2024-03-23T05:14:08;101731.47;;;5.92;100.00
64352;BME280;50680;52.626;-8.668;2024-03-23T05:16:34;101733.16;;;5.93;100.00
64352;BME280;50680;52.626;-8.668;2024-03-23T05:19:00;101727.91;;;5.95;100.00
64352;BME280;50680;52.626;-8.668;2024-03-23T05:21:27;101728.63;;;6.03;100.00
64352;BME280;50680;52.626;-8.668;2024-03-23T05:23:54;101739.03;;;6.03;100.00
64352;BME280;50680;52.626;-8.668;2024-03-23T05:26:22;101748.38;;;6.12;100.00
64352;BME280;50680;52.626;-8.668;2024-03-23T05:28:48;101728.75;;;5.97;100.00
64352;BME280;50680;52.626;-8.668;2024-03-23T05:31:23;101730.25;;;6.07;100.00
64352;BME280;50680;52.626;-8.668;2024-03-23T05:33:49;101724.59;;;5.88;100.00
64352;BME280;50680;52.626;-8.668;2024-03-23T05:36:15;101722.06;;;5.87;100.00
64352;BME280;50680;52.626;-8.668;2024-03-23T05:38:41;101709.97;;;5.82;100.00
64352;BME280;50680;52.626;-8.668;2024-03-23T05:41:07;101709.81;;;5.90;100.00
64352;BME280;50680;52.626;-8.668;2024-03-23T05:43:32;101718.28;;;6.00;100.00
64352;BME280;50680;52.626;-8.668;2024-03-23T05:45:59;101729.34;;;6.10;100.00
64352;BME280;50680;52.626;-8.668;2024-03-23T05:48:26;101729.16;;;6.16;100.00
64352;BME280;50680;52.626;-8.668;2024-03-23T05:50:52;101727.50;;;6.13;100.00
64352;BME280;50680;52.626;-8.668;2024-03-23T05:53:19;101723.06;;;6.17;100.00
64352;BME280;50680;52.626;-8.668;2024-03-23T05:55:46;101720.53;;;6.14;100.00
64352;BME280;50680;52.626;-8.668;2024-03-23T05:58:15;101713.38;;;6.24;100.00
64352;BME280;50680;52.626;-8.668;2024-03-23T06:00:41;101705.59;;;6.22;100.00
64352;BME280;50680;52.626;-8.668;2024-03-23T06:03:08;101692.47;;;6.27;100.00
64352;BME280;50680;52.626;-8.668;2024-03-23T06:05:34;101705.47;;;6.27;100.00
64352;BME280;50680;52.626;-8.668;2024-03-23T06:08:00;101705.44;;;6.28;100.00
64352;BME280;50680;52.626;-8.668;2024-03-23T06:10:25;101713.16;;;6.31;100.00
64352;BME280;50680;52.626;-8.668;2024-03-23T06:12:51;101707.78;;;6.39;100.00
64352;BME280;50680;52.626;-8.668;2024-03-23T06:15:21;101704.78;;;6.54;100.00
64352;BME280;50680;52.626;-8.668;2024-03-23T06:17:48;101710.91;;;6.52;100.00
64352;BME280;50680;52.626;-8.668;2024-03-23T06:20:14;101704.81;;;6.53;100.00
64352;BME280;50680;52.626;-8.668;2024-03-23T06:22:40;101689.97;;;6.55;100.00
64352;BME280;50680;52.626;-8.668;2024-03-23T06:25:06;101690.72;;;6.60;100.00
64352;BME280;50680;52.626;-8.668;2024-03-23T06:27:32;101680.50;;;6.52;100.00
64352;BME280;50680;52.626;-8.668;2024-03-23T06:30:01;101694.16;;;6.61;100.00
64352;BME280;50680;52.626;-8.668;2024-03-23T06:32:27;101678.94;;;6.45;100.00
64352;BME280;50680;52.626;-8.668;2024-03-23T06:34:54;101679.88;;;6.43;100.00
64352;BME280;50680;52.626;-8.668;2024-03-23T06:37:20;101679.97;;;6.39;100.00
64352;BME280;50680;52.626;-8.668;2024-03-23T06:39:46;101672.09;;;6.41;100.00
64352;BME280;50680;52.626;-8.668;2024-03-23T06:42:12;101677.31;;;6.41;100.00
64352;BME280;50680;52.626;-8.668;2024-03-23T06:44:39;101674.69;;;6.43;100.00
64352;BME280;50680;52.626;-8.668;2024-03-23T06:47:05;101687.66;;;6.44;100.00
64352;BME280;50680;52.626;-8.668;2024-03-23T06:49:31;101671.22;;;6.42;100.00
64352;BME280;50680;52.626;-8.668;2024-03-23T06:51:56;101674.50;;;6.49;100.00
64352;BME280;50680;52.626;-8.668;2024-03-23T06:54:24;101663.94;;;6.55;100.00
64352;BME280;50680;52.626;-8.668;2024-03-23T06:56:50;101659.66;;;6.52;100.00
64352;BME280;50680;52.626;-8.668;2024-03-23T06:59:15;101675.22;;;6.54;100.00
64352;BME280;50680;52.626;-8.668;2024-03-23T07:01:41;101662.16;;;6.55;100.00
64352;BME280;50680;52.626;-8.668;2024-03-23T07:04:07;101669.91;;;6.58;100.00
64352;BME280;50680;52.626;-8.668;2024-03-23T07:06:33;101668.88;;;6.64;100.00
64352;BME280;50680;52.626;-8.668;2024-03-23T07:08:59;101682.63;;;6.69;100.00
64352;BME280;50680;52.626;-8.668;2024-03-23T07:11:25;101696.38;;;6.74;100.00
64352;BME280;50680;52.626;-8.668;2024-03-23T07:13:53;101688.53;;;6.76;100.00
64352;BME280;50680;52.626;-8.668;2024-03-23T07:16:22;101677.47;;;6.68;100.00
64352;BME280;50680;52.626;-8.668;2024-03-23T07:18:50;101672.31;;;6.66;100.00
64352;BME280;50680;52.626;-8.668;2024-03-23T07:21:15;101674.44;;;6.52;100.00
64352;BME280;50680;52.626;-8.668;2024-03-23T07:23:44;101679.59;;;6.53;100.00
64352;BME280;50680;52.626;-8.668;2024-03-23T07:26:10;101673.00;;;6.40;100.00
64352;BME280;50680;52.626;-8.668;2024-03-23T07:28:36;101672.81;;;6.48;100.00
64352;BME280;50680;52.626;-8.668;2024-03-23T07:33:28;101677.75;;;6.57;100.00
64352;BME280;50680;52.626;-8.668;2024-03-23T07:35:54;101674.44;;;6.52;100.00
64352;BME280;50680;52.626;-8.668;2024-03-23T07:38:20;101675.22;;;6.54;100.00
64352;BME280;50680;52.626;-8.668;2024-03-23T07:40:46;101682.94;;;6.58;100.00
64352;BME280;50680;52.626;-8.668;2024-03-23T07:43:12;101683.28;;;6.77;100.00
64352;BME280;50680;52.626;-8.668;2024-03-23T07:45:37;101677.91;;;7.13;100.00
64352;BME280;50680;52.626;-8.668;2024-03-23T07:48:04;101673.75;;;7.93;100.00
64352;BME280;50680;52.626;-8.668;2024-03-23T07:50:30;101672.59;;;8.26;100.00
64352;BME280;50680;52.626;-8.668;2024-03-23T07:52:55;101680.00;;;8.39;100.00
64352;BME280;50680;52.626;-8.668;2024-03-23T07:55:21;101688.34;;;8.23;100.00
64352;BME280;50680;52.626;-8.668;2024-03-23T07:57:47;101691.00;;;7.97;100.00
64352;BME280;50680;52.626;-8.668;2024-03-23T08:00:13;101688.84;;;7.83;100.00
64352;BME280;50680;52.626;-8.668;2024-03-23T08:02:39;101695.50;;;7.65;100.00
64352;BME280;50680;52.626;-8.668;2024-03-23T08:05:05;101681.84;;;7.57;100.00
64352;BME280;50680;52.626;-8.668;2024-03-23T08:07:31;101670.81;;;7.47;100.00
64352;BME280;50680;52.626;-8.668;2024-03-23T08:09:57;101686.44;;;7.48;100.00
64352;BME280;50680;52.626;-8.668;2024-03-23T08:12:25;101682.78;;;7.54;100.00
64352;BME280;50680;52.626;-8.668;2024-03-23T08:14:50;101692.41;;;7.52;100.00
64352;BME280;50680;52.626;-8.668;2024-03-23T08:17:16;101687.28;;;7.49;100.00
64352;BME280;50680;52.626;-8.668;2024-03-23T08:19:42;101694.09;;;7.55;100.00
64352;BME280;50680;52.626;-8.668;2024-03-23T08:22:07;101686.97;;;7.60;100.00
64352;BME280;50680;52.626;-8.668;2024-03-23T08:24:34;101684.06;;;7.69;100.00
64352;BME280;50680;52.626;-8.668;2024-03-23T08:27:00;101684.50;;;7.82;100.00
64352;BME280;50680;52.626;-8.668;2024-03-23T08:29:26;101677.28;;;7.90;100.00
64352;BME280;50680;52.626;-8.668;2024-03-23T08:31:52;101672.09;;;7.88;100.00
64352;BME280;50680;52.626;-8.668;2024-03-23T08:34:17;101688.00;;;7.82;100.00
64352;BME280;50680;52.626;-8.668;2024-03-23T08:36:43;101656.22;;;7.68;100.00
64352;BME280;50680;52.626;-8.668;2024-03-23T08:39:09;101669.09;;;7.74;100.00
64352;BME280;50680;52.626;-8.668;2024-03-23T08:41:35;101667.50;;;7.97;100.00
64352;BME280;50680;52.626;-8.668;2024-03-23T08:44:00;101663.06;;;8.51;100.00
64352;BME280;50680;52.626;-8.668;2024-03-23T08:46:26;101677.75;;;8.55;100.00
64352;BME280;50680;52.626;-8.668;2024-03-23T08:48:53;101672.38;;;8.33;100.00
64352;BME280;50680;52.626;-8.668;2024-03-23T08:51:18;101678.19;;;8.16;100.00
64352;BME280;50680;52.626;-8.668;2024-03-23T08:53:45;101697.81;;;8.01;100.00
64352;BME280;50680;52.626;-8.668;2024-03-23T08:56:11;101708.28;;;8.01;100.00
64352;BME280;50680;52.626;-8.668;2024-03-23T08:58:38;101703.69;;;8.07;100.00
64352;BME280;50680;52.626;-8.668;2024-03-23T09:01:12;101696.78;;;8.06;100.00
64352;BME280;50680;52.626;-8.668;2024-03-23T09:03:39;101683.16;;;7.97;100.00
64352;BME280;50680;52.626;-8.668;2024-03-23T09:06:13;101688.44;;;8.22;100.00
64352;BME280;50680;52.626;-8.668;2024-03-23T09:08:39;101696.56;;;8.64;100.00
64352;BME280;50680;52.626;-8.668;2024-03-23T09:11:07;101696.56;;;9.35;100.00
64352;BME280;50680;52.626;-8.668;2024-03-23T09:13:35;101691.72;;;9.92;100.00
64352;BME280;50680;52.626;-8.668;2024-03-23T09:16:01;101701.78;;;10.24;100.00
64352;BME280;50680;52.626;-8.668;2024-03-23T09:18:27;101699.00;;;10.49;100.00
64352;BME280;50680;52.626;-8.668;2024-03-23T09:20:53;101687.81;;;10.85;100.00
64352;BME280;50680;52.626;-8.668;2024-03-23T09:23:22;101689.72;;;11.19;100.00
64352;BME280;50680;52.626;-8.668;2024-03-23T09:25:48;101680.38;;;11.33;100.00
64352;BME280;50680;52.626;-8.668;2024-03-23T09:28:14;101676.72;;;11.54;100.00
64352;BME280;50680;52.626;-8.668;2024-03-23T09:30:40;101682.28;;;11.29;100.00
64352;BME280;50680;52.626;-8.668;2024-03-23T09:33:12;101684.13;;;11.46;100.00
64352;BME280;50680;52.626;-8.668;2024-03-23T09:35:39;101684.63;;;10.97;100.00
64352;BME280;50680;52.626;-8.668;2024-03-23T09:38:04;101678.28;;;10.82;100.00
64352;BME280;50680;52.626;-8.668;2024-03-23T09:40:31;101668.28;;;10.30;100.00
64352;BME280;50680;52.626;-8.668;2024-03-23T09:42:57;101695.28;;;9.69;100.00
64352;BME280;50680;52.626;-8.668;2024-03-23T09:45:34;101720.13;;;9.12;100.00
64352;BME280;50680;52.626;-8.668;2024-03-23T09:48:01;101720.53;;;8.52;100.00
64352;BME280;50680;52.626;-8.668;2024-03-23T09:50:27;101729.16;;;8.01;100.00
64352;BME280;50680;52.626;-8.668;2024-03-23T09:52:53;101715.00;;;8.08;100.00
64352;BME280;50680;52.626;-8.668;2024-03-23T09:55:18;101710.13;;;7.97;100.00
64352;BME280;50680;52.626;-8.668;2024-03-23T09:57:44;101710.78;;;8.04;100.00
64352;BME280;50680;52.626;-8.668;2024-03-23T10:00:10;101718.44;;;8.35;100.00
64352;BME280;50680;52.626;-8.668;2024-03-23T10:02:38;101718.16;;;8.70;100.00
64352;BME280;50680;52.626;-8.668;2024-03-23T10:05:04;101728.81;;;9.14;100.00
64352;BME280;50680;52.626;-8.668;2024-03-23T10:07:30;101717.03;;;9.48;100.00
64352;BME280;50680;52.626;-8.668;2024-03-23T10:09:56;101723.69;;;9.78;100.00
64352;BME280;50680;52.626;-8.668;2024-03-23T10:12:23;101715.50;;;10.08;100.00
64352;BME280;50680;52.626;-8.668;2024-03-23T10:14:49;101723.84;;;10.18;100.00
64352;BME280;50680;52.626;-8.668;2024-03-23T10:17:19;101723.13;;;10.37;100.00
64352;BME280;50680;52.626;-8.668;2024-03-23T10:19:50;101725.94;;;10.32;100.00
64352;BME280;50680;52.626;-8.668;2024-03-23T10:22:20;101719.44;;;10.41;100.00
64352;BME280;50680;52.626;-8.668;2024-03-23T10:24:47;101721.63;;;10.29;100.00
64352;BME280;50680;52.626;-8.668;2024-03-23T10:27:16;101712.88;;;10.71;100.00
64352;BME280;50680;52.626;-8.668;2024-03-23T10:29:43;101710.56;;;10.84;100.00
64352;BME280;50680;52.626;-8.668;2024-03-23T10:32:17;101711.19;;;10.89;100.00
64352;BME280;50680;52.626;-8.668;2024-03-23T10:34:43;101709.56;;;11.26;100.00
64352;BME280;50680;52.626;-8.668;2024-03-23T10:37:09;101712.63;;;11.16;100.00
64352;BME280;50680;52.626;-8.668;2024-03-23T10:39:40;101696.63;;;11.22;100.00
64352;BME280;50680;52.626;-8.668;2024-03-23T10:42:08;101705.34;;;11.41;100.00
64352;BME280;50680;52.626;-8.668;2024-03-23T10:44:34;101712.38;;;11.03;100.00
64352;BME280;50680;52.626;-8.668;2024-03-23T10:47:01;101715.34;;;11.14;100.00
64352;BME280;50680;52.626;-8.668;2024-03-23T10:49:35;101701.44;;;11.31;100.00
64352;BME280;50680;52.626;-8.668;2024-03-23T10:52:05;101709.09;;;11.55;100.00
64352;BME280;50680;52.626;-8.668;2024-03-23T10:54:32;101714.47;;;11.71;100.00
64352;BME280;50680;52.626;-8.668;2024-03-23T10:57:11;101709.81;;;11.58;100.00
64352;BME280;50680;52.626;-8.668;2024-03-23T10:59:39;101738.13;;;11.33;100.00
64352;BME280;50680;52.626;-8.668;2024-03-23T11:02:06;101772.47;;;10.25;100.00
64352;BME280;50680;52.626;-8.668;2024-03-23T11:04:35;101778.19;;;9.69;100.00
64352;BME280;50680;52.626;-8.668;2024-03-23T11:07:02;101763.06;;;9.31;100.00
64352;BME280;50680;52.626;-8.668;2024-03-23T11:12:26;101776.69;;;8.39;100.00
64352;BME280;50680;52.626;-8.668;2024-03-23T11:15:02;101761.50;;;8.23;100.00
64352;BME280;50680;52.626;-8.668;2024-03-23T11:17:29;101756.28;;;8.23;100.00
64352;BME280;50680;52.626;-8.668;2024-03-23T11:19:55;101752.75;;;8.78;100.00
64352;BME280;50680;52.626;-8.668;2024-03-23T11:22:54;101750.34;;;9.44;100.00
64352;BME280;50680;52.626;-8.668;2024-03-23T11:25:21;101728.03;;;9.79;100.00
64352;BME280;50680;52.626;-8.668;2024-03-23T11:27:49;101740.91;;;10.28;100.00
64352;BME280;50680;52.626;-8.668;2024-03-23T11:30:20;101740.38;;;10.63;100.00
64352;BME280;50680;52.626;-8.668;2024-03-23T11:32:48;101734.19;;;10.43;100.00
64352;BME280;50680;52.626;-8.668;2024-03-23T11:38:12;101725.00;;;11.14;100.00
64352;BME280;50680;52.626;-8.668;2024-03-23T11:40:42;101724.66;;;11.21;100.00
64352;BME280;50680;52.626;-8.668;2024-03-23T11:43:10;101698.94;;;11.47;100.00
64352;BME280;50680;52.626;-8.668;2024-03-23T11:45:44;101721.44;;;11.53;100.00
64352;BME280;50680;52.626;-8.668;2024-03-23T11:48:10;101725.59;;;11.76;100.00
64352;BME280;50680;52.626;-8.668;2024-03-23T11:50:39;101714.88;;;11.80;100.00
64352;BME280;50680;52.626;-8.668;2024-03-23T11:53:17;101700.50;;;12.07;100.00
64352;BME280;50680;52.626;-8.668;2024-03-23T11:58:16;101703.88;;;11.91;100.00
64352;BME280;50680;52.626;-8.668;2024-03-23T12:00:49;101705.47;;;11.94;100.00
64352;BME280;50680;52.626;-8.668;2024-03-23T12:03:16;101706.66;;;12.23;100.00
64352;BME280;50680;52.626;-8.668;2024-03-23T12:05:47;101710.44;;;12.00;100.00
64352;BME280;50680;52.626;-8.668;2024-03-23T12:08:24;101716.19;;;12.26;100.00
64352;BME280;50680;52.626;-8.668;2024-03-23T12:11:10;101713.22;;;12.32;100.00
64352;BME280;50680;52.626;-8.668;2024-03-23T12:13:37;101723.22;;;11.89;100.00
64352;BME280;50680;52.626;-8.668;2024-03-23T12:16:14;101723.25;;;11.70;100.00
64352;BME280;50680;52.626;-8.668;2024-03-23T12:18:44;101720.06;;;11.82;100.00
64352;BME280;50680;52.626;-8.668;2024-03-23T12:21:10;101720.81;;;11.47;100.00
64352;BME280;50680;52.626;-8.668;2024-03-23T12:23:39;101719.09;;;12.02;100.00
64352;BME280;50680;52.626;-8.668;2024-03-23T12:26:05;101722.00;;;11.78;100.00
64352;BME280;50680;52.626;-8.668;2024-03-23T12:28:32;101714.53;;;12.06;100.00
64352;BME280;50680;52.626;-8.668;2024-03-23T12:30:58;101717.97;;;12.43;100.00
64352;BME280;50680;52.626;-8.668;2024-03-23T12:33:24;101712.72;;;12.43;100.00
64352;BME280;50680;52.626;-8.668;2024-03-23T12:35:50;101714.09;;;12.50;100.00
64352;BME280;50680;52.626;-8.668;2024-03-23T12:38:17;101704.66;;;12.28;100.00
64352;BME280;50680;52.626;-8.668;2024-03-23T12:40:51;101708.59;;;12.37;100.00
64352;BME280;50680;52.626;-8.668;2024-03-23T12:43:18;101713.91;;;12.70;100.00
64352;BME280;50680;52.626;-8.668;2024-03-23T12:45:47;101702.59;;;12.68;100.00
64352;BME280;50680;52.626;-8.668;2024-03-23T12:48:13;101704.66;;;12.63;100.00
64352;BME280;50680;52.626;-8.668;2024-03-23T12:50:39;101699.31;;;12.47;100.00
64352;BME280;50680;52.626;-8.668;2024-03-23T12:53:04;101699.09;;;12.17;100.00
64352;BME280;50680;52.626;-8.668;2024-03-23T12:55:30;101683.72;;;11.90;100.00
64352;BME280;50680;52.626;-8.668;2024-03-23T12:57:56;101668.16;;;12.22;100.00
64352;BME280;50680;52.626;-8.668;2024-03-23T13:00:22;101694.44;;;12.57;100.00
64352;BME280;50680;52.626;-8.668;2024-03-23T13:02:48;101700.25;;;12.79;100.00
64352;BME280;50680;52.626;-8.668;2024-03-23T13:05:13;101690.09;;;12.89;100.00
64352;BME280;50680;52.626;-8.668;2024-03-23T13:07:39;101693.84;;;13.34;100.00
64352;BME280;50680;52.626;-8.668;2024-03-23T13:10:05;101694.75;;;13.49;100.00
64352;BME280;50680;52.626;-8.668;2024-03-23T13:12:32;101705.97;;;13.53;100.00
64352;BME280;50680;52.626;-8.668;2024-03-23T13:14:59;101705.97;;;13.53;100.00
64352;BME280;50680;52.626;-8.668;2024-03-23T13:17:25;101703.44;;;13.51;100.00
64352;BME280;50680;52.626;-8.668;2024-03-23T13:19:53;101704.72;;;13.11;100.00
64352;BME280;50680;52.626;-8.668;2024-03-23T13:22:19;101718.88;;;12.41;100.00
64352;BME280;50680;52.626;-8.668;2024-03-23T13:24:44;101718.50;;;11.78;100.00
64352;BME280;50680;52.626;-8.668;2024-03-23T13:27:10;101745.66;;;10.82;100.00
64352;BME280;50680;52.626;-8.668;2024-03-23T13:29:36;101763.31;;;8.75;100.00
64352;BME280;50680;52.626;-8.668;2024-03-23T13:32:06;101768.38;;;8.27;100.00
64352;BME280;50680;52.626;-8.668;2024-03-23T13:34:32;101762.72;;;8.40;100.00
64352;BME280;50680;52.626;-8.668;2024-03-23T13:37:01;101746.56;;;8.55;100.00
64352;BME280;50680;52.626;-8.668;2024-03-23T13:39:27;101751.91;;;8.77;100.00
64352;BME280;50680;52.626;-8.668;2024-03-23T13:41:53;101746.19;;;9.15;100.00